Time;durP1;ratioP1;P1;durP2;ratioP2;P2;SDS_P1;SDS_P2;PMS_P1;PMS_P2;Temp;Humidity;BMP_temperature;BMP_pressure;BME280_temperature;BME280_humidity;BME280_pressure;Samples;Min_cycle;Max_cycle;Signal;HPM_P1;HPM_P2
2023/12/14 00:00:07;;;;;;;1589.47;999.90;;;27.70;99.90;;;;;;4993911;28;20023;-65
2023/12/14 00:02:34;;;;;;;1559.68;999.90;;;27.70;99.90;;;;;;4995187;28;20110;-65
2023/12/14 00:05:00;;;;;;;1560.57;999.90;;;27.70;99.90;;;;;;4994813;28;20038;-65
2023/12/14 00:07:27;;;;;;;1561.60;999.90;;;27.70;99.90;;;;;;4994626;28;20022;-65
2023/12/14 00:09:53;;;;;;;1561.28;999.90;;;27.80;99.90;;;;;;4994529;28;20037;-65
2023/12/14 00:12:20;;;;;;;1555.10;999.90;;;27.80;99.90;;;;;;4994458;28;20037;-65
2023/12/14 00:14:46;;;;;;;1558.22;999.90;;;27.70;99.90;;;;;;4994310;28;20653;-66
2023/12/14 00:17:13;;;;;;;1543.40;999.90;;;27.70;99.90;;;;;;4994404;28;20034;-64
2023/12/14 00:19:39;;;;;;;1560.55;999.90;;;27.70;99.90;;;;;;4994328;28;20053;-66
2023/12/14 00:22:06;;;;;;;1572.28;999.90;;;27.70;99.90;;;;;;4994229;28;20370;-65
2023/12/14 00:24:32;;;;;;;1556.43;999.90;;;27.70;99.90;;;;;;4994295;28;20105;-65
2023/12/14 00:26:59;;;;;;;1554.63;999.90;;;27.80;99.90;;;;;;4994438;28;20034;-65
2023/12/14 00:29:25;;;;;;;1546.20;999.90;;;27.80;99.90;;;;;;4999605;28;20037;-65
2023/12/14 00:31:52;;;;;;;1562.75;999.90;;;27.80;99.90;;;;;;5012000;28;20033;-65
2023/12/14 00:34:18;;;;;;;1551.47;999.90;;;27.90;99.90;;;;;;4996682;28;20097;-65
2023/12/14 00:36:45;;;;;;;1565.20;999.90;;;28.00;99.90;;;;;;4994106;28;20425;-65
2023/12/14 00:39:11;;;;;;;1542.88;999.90;;;28.00;99.90;;;;;;5006159;28;20337;-64
2023/12/14 00:41:38;;;;;;;1565.00;999.90;;;28.00;99.90;;;;;;5002192;28;20049;-65
2023/12/14 00:44:04;;;;;;;1558.57;999.90;;;28.00;99.90;;;;;;5003669;28;20309;-64
2023/12/14 00:46:31;;;;;;;1571.72;999.90;;;28.10;99.90;;;;;;5002526;28;21091;-65
2023/12/14 00:48:57;;;;;;;1533.20;999.90;;;28.00;99.90;;;;;;5002497;28;20113;-64
2023/12/14 00:51:24;;;;;;;1566.28;999.90;;;28.10;99.90;;;;;;5003222;28;20029;-64
2023/12/14 00:53:50;;;;;;;1545.10;999.90;;;28.10;99.90;;;;;;5004478;28;20030;-64
2023/12/14 00:56:17;;;;;;;1559.20;999.90;;;28.00;99.90;;;;;;5002127;28;20439;-65
2023/12/14 00:58:43;;;;;;;1571.72;999.90;;;28.00;99.90;;;;;;5003101;28;20046;-64
2023/12/14 01:01:10;;;;;;;1547.10;999.90;;;28.00;99.90;;;;;;5003858;28;20370;-64
2023/12/14 01:03:36;;;;;;;1567.35;999.90;;;28.00;99.90;;;;;;5002069;28;20025;-65
2023/12/14 01:06:03;;;;;;;1516.22;999.90;;;28.00;99.90;;;;;;5003552;28;20046;-65
2023/12/14 01:08:30;;;;;;;1562.28;999.90;;;28.10;99.90;;;;;;4998683;28;20042;-65
2023/12/14 01:10:56;;;;;;;1571.05;999.90;;;28.10;99.90;;;;;;5000367;28;20465;-64
2023/12/14 01:13:23;;;;;;;1574.55;999.90;;;28.10;99.90;;;;;;5007493;28;20019;-64
2023/12/14 01:15:50;;;;;;;1573.88;999.90;;;28.20;99.90;;;;;;5007923;28;20037;-65
2023/12/14 01:18:17;;;;;;;1566.15;999.90;;;28.20;99.90;;;;;;5006184;28;20022;-64
2023/12/14 01:20:43;;;;;;;1557.97;999.90;;;28.30;99.90;;;;;;5007476;28;20026;-64
2023/12/14 01:23:10;;;;;;;1553.97;999.90;;;28.30;99.90;;;;;;5016751;28;20018;-64
2023/12/14 01:25:36;;;;;;;1559.97;999.90;;;28.30;99.90;;;;;;5017719;28;20503;-64
2023/12/14 01:28:03;;;;;;;1572.50;999.90;;;28.40;99.90;;;;;;5017866;28;20022;-64
2023/12/14 01:30:30;;;;;;;1543.00;999.90;;;28.40;99.90;;;;;;5017654;28;20079;-65
2023/12/14 01:32:56;;;;;;;1577.72;999.90;;;28.40;99.90;;;;;;5017589;28;20033;-64
2023/12/14 01:35:23;;;;;;;1551.95;999.90;;;28.50;99.90;;;;;;5017308;28;20104;-64
2023/12/14 01:37:49;;;;;;;1559.28;999.90;;;28.50;99.90;;;;;;5016995;28;20141;-64
2023/12/14 01:40:18;;;;;;;1572.07;999.90;;;28.60;99.90;;;;;;5017525;28;20018;-65
2023/12/14 01:42:45;;;;;;;1556.68;999.90;;;28.70;99.90;;;;;;5017282;28;20030;-65
2023/12/14 01:45:15;;;;;;;1565.47;999.90;;;28.80;99.90;;;;;;5017078;28;20543;-64
2023/12/14 01:47:42;;;;;;;1563.18;999.90;;;28.90;99.90;;;;;;5017646;28;20037;-66
2023/12/14 01:50:08;;;;;;;1541.45;999.90;;;29.00;99.90;;;;;;5017477;28;20029;-66
2023/12/14 01:52:35;;;;;;;1526.18;999.90;;;29.10;99.90;;;;;;5017436;28;20026;-66
2023/12/14 01:55:02;;;;;;;1561.28;999.90;;;29.00;99.90;;;;;;5016888;28;20029;-65
2023/12/14 01:57:29;;;;;;;1552.82;999.90;;;29.20;99.90;;;;;;5016671;28;20050;-66
2023/12/14 01:59:56;;;;;;;1544.63;999.90;;;29.10;99.90;;;;;;5016717;28;20552;-65
2023/12/14 02:02:22;;;;;;;1570.43;999.90;;;29.10;99.90;;;;;;5016807;28;20076;-66
2023/12/14 02:04:49;;;;;;;1559.40;999.90;;;29.10;99.90;;;;;;5016936;28;20488;-65
2023/12/14 02:07:15;;;;;;;1564.32;999.90;;;29.20;99.90;;;;;;5016966;28;20048;-64
2023/12/14 02:09:42;;;;;;;1560.22;999.90;;;29.20;99.90;;;;;;5017147;28;20025;-63
2023/12/14 02:12:08;;;;;;;1559.50;999.90;;;29.30;99.90;;;;;;5016895;28;20036;-65
2023/12/14 02:14:35;;;;;;;1561.93;999.90;;;29.20;99.90;;;;;;5016470;28;20109;-64
2023/12/14 02:17:01;;;;;;;1549.78;999.90;;;29.20;99.90;;;;;;5016842;28;20424;-64
2023/12/14 02:19:28;;;;;;;1544.78;999.90;;;29.20;99.90;;;;;;5016461;28;20037;-64
2023/12/14 02:21:55;;;;;;;1531.38;999.90;;;29.30;99.90;;;;;;5016464;28;20021;-64
2023/12/14 02:24:21;;;;;;;1547.32;999.90;;;29.30;99.90;;;;;;5016264;28;20049;-64
2023/12/14 02:26:48;;;;;;;1577.15;999.90;;;29.30;99.90;;;;;;5016280;28;20112;-64
2023/12/14 02:29:16;;;;;;;1578.47;999.90;;;29.40;99.90;;;;;;5012956;28;20100;-63
2023/12/14 02:31:42;;;;;;;1575.32;999.90;;;;;;;;;;4996520;28;20026;-66
2023/12/14 02:34:09;;;;;;;1567.57;999.90;;;29.40;99.90;;;;;;4996570;28;20097;-65
2023/12/14 02:36:35;;;;;;;1548.28;999.90;;;29.50;99.90;;;;;;4996448;28;20113;-65
2023/12/14 02:39:02;;;;;;;1569.05;999.90;;;29.50;99.90;;;;;;4996879;28;20018;-63
2023/12/14 02:41:28;;;;;;;1556.57;999.90;;;29.60;99.90;;;;;;4996709;28;20044;-63
2023/12/14 02:43:55;;;;;;;1582.22;999.90;;;29.60;99.90;;;;;;5010956;28;20081;-64
2023/12/14 02:46:21;;;;;;;1563.60;999.90;;;29.60;99.90;;;;;;5004729;28;20030;-63
2023/12/14 02:48:48;;;;;;;1582.25;999.90;;;29.70;99.90;;;;;;5005434;28;20069;-65
2023/12/14 02:51:15;;;;;;;1575.50;999.90;;;29.80;99.90;;;;;;5015028;28;20397;-64
2023/12/14 02:53:42;;;;;;;1583.32;999.90;;;29.80;99.90;;;;;;5015854;28;20030;-63
2023/12/14 02:56:11;;;;;;;1586.60;999.90;;;29.90;99.90;;;;;;5015735;28;20057;-67
2023/12/14 02:58:38;;;;;;;1581.68;999.90;;;30.00;99.90;;;;;;5015550;28;20053;-68
2023/12/14 03:01:04;;;;;;;1565.03;999.90;;;30.10;99.90;;;;;;5015893;28;20030;-66
2023/12/14 03:03:31;;;;;;;1563.60;999.90;;;30.10;99.90;;;;;;5015983;28;20022;-66
2023/12/14 03:05:57;;;;;;;1573.90;999.90;;;30.10;99.90;;;;;;5015931;28;20017;-67
2023/12/14 03:08:24;;;;;;;1574.38;999.90;;;30.10;99.90;;;;;;5015466;28;20032;-67
2023/12/14 03:10:50;;;;;;;1579.15;999.90;;;30.20;99.90;;;;;;5015513;28;20041;-65
2023/12/14 03:13:17;;;;;;;1586.03;999.90;;;30.20;99.90;;;;;;5015602;28;20026;-66
2023/12/14 03:15:44;;;;;;;1565.88;999.90;;;30.30;99.90;;;;;;5015583;28;20034;-65
2023/12/14 03:18:13;;;;;;;1561.18;999.90;;;30.30;99.90;;;;;;5015560;28;20029;-66
2023/12/14 03:20:39;;;;;;;1584.28;999.90;;;30.40;99.90;;;;;;5015553;28;20061;-65
2023/12/14 03:23:06;;;;;;;1580.78;999.90;;;30.50;99.90;;;;;;5015547;28;20038;-65
2023/12/14 03:25:32;;;;;;;1572.35;999.90;;;30.50;99.90;;;;;;5015500;28;20034;-65
2023/12/14 03:27:59;;;;;;;1565.03;999.90;;;30.50;99.90;;;;;;5015475;28;20582;-65
2023/12/14 03:30:26;;;;;;;1584.00;999.90;;;30.60;99.90;;;;;;5014916;28;20037;-65
2023/12/14 03:32:53;;;;;;;1547.50;999.90;;;30.70;99.90;;;;;;5014969;28;20052;-65
2023/12/14 03:35:19;;;;;;;1582.43;999.90;;;30.70;99.90;;;;;;5014192;28;20026;-65
2023/12/14 03:37:46;;;;;;;1577.80;999.90;;;30.70;99.90;;;;;;5014906;28;20018;-66
2023/12/14 03:40:13;;;;;;;1580.75;999.90;;;30.70;99.90;;;;;;5015067;28;20109;-65
2023/12/14 03:42:39;;;;;;;1566.75;999.90;;;30.70;99.90;;;;;;5014880;28;20389;-66
2023/12/14 03:45:06;;;;;;;1584.97;999.90;;;30.80;99.90;;;;;;5014816;28;20029;-66
2023/12/14 03:47:33;;;;;;;1578.68;999.90;;;30.80;99.90;;;;;;5015023;28;20498;-66
2023/12/14 03:49:59;;;;;;;1585.40;999.90;;;30.90;99.90;;;;;;5010271;28;20190;-68
2023/12/14 03:52:27;;;;;;;1568.75;999.90;;;31.00;99.90;;;;;;5005367;28;20287;-66
2023/12/14 03:54:54;;;;;;;1585.10;999.90;;;31.00;99.90;;;;;;4996566;28;20370;-66
2023/12/14 03:57:21;;;;;;;1582.47;999.90;;;31.10;99.90;;;;;;5001416;28;20042;-66
2023/12/14 03:59:48;;;;;;;1581.43;999.90;;;31.10;99.90;;;;;;5003782;28;20501;-66
2023/12/14 04:02:14;;;;;;;1581.40;999.90;;;31.20;99.90;;;;;;5004644;28;20025;-66
2023/12/14 04:04:41;;;;;;;1566.65;999.90;;;31.30;99.90;;;;;;5005125;28;20101;-65
2023/12/14 04:07:08;;;;;;;1588.68;999.90;;;31.30;99.90;;;;;;5003392;28;20067;-66
2023/12/14 04:09:34;;;;;;;1569.00;999.90;;;31.40;99.90;;;;;;5004429;28;20276;-66
2023/12/14 04:12:00;;;;;;;1587.20;999.90;;;31.40;99.90;;;;;;5005044;28;20065;-64
2023/12/14 04:14:27;;;;;;;1514.28;999.90;;;31.40;99.90;;;;;;5003464;28;20096;-67
2023/12/14 04:16:55;;;;;;;1519.35;999.90;;;31.50;99.90;;;;;;5004590;28;20018;-67
2023/12/14 04:19:22;;;;;;;1602.22;999.90;;;31.50;99.90;;;;;;5005391;28;20109;-66
2023/12/14 04:21:48;;;;;;;1600.78;999.90;;;31.60;99.90;;;;;;5003164;28;20393;-67
2023/12/14 04:24:15;;;;;;;1567.82;999.90;;;31.60;99.90;;;;;;5003921;28;20152;-66
2023/12/14 04:26:42;;;;;;;1554.05;999.90;;;31.80;99.90;;;;;;5004789;28;20527;-66
2023/12/14 04:29:08;;;;;;;1534.50;999.90;;;31.80;99.90;;;;;;5002822;28;20116;-66
2023/12/14 04:31:35;;;;;;;1539.05;999.90;;;31.80;99.90;;;;;;5004101;28;20049;-65
2023/12/14 04:34:02;;;;;;;1521.57;999.90;;;31.80;99.90;;;;;;5004722;28;20027;-65
2023/12/14 04:36:28;;;;;;;1543.72;999.90;;;32.00;99.90;;;;;;5001972;28;20040;-65
2023/12/14 04:38:55;;;;;;;1554.47;999.90;;;32.10;99.90;;;;;;5003512;28;20030;-66
2023/12/14 04:41:21;;;;;;;1537.07;999.90;;;32.10;99.90;;;;;;5001191;28;20499;-67
2023/12/14 04:43:48;;;;;;;1550.07;999.90;;;32.10;99.90;;;;;;5010515;28;20412;-66
2023/12/14 04:46:14;;;;;;;1514.57;999.90;;;32.00;99.90;;;;;;5003398;28;20054;-65
2023/12/14 04:48:41;;;;;;;1510.18;999.90;;;32.10;99.90;;;;;;5003254;28;20097;-66
2023/12/14 04:51:12;;;;;;;1517.03;999.90;;;32.20;99.90;;;;;;5007778;28;20013;-66
2023/12/14 04:53:39;;;;;;;1525.80;999.90;;;32.30;99.90;;;;;;5012680;28;20116;-66
2023/12/14 04:56:09;;;;;;;1520.57;999.90;;;32.20;99.90;;;;;;5003347;28;20421;-65
2023/12/14 04:58:36;;;;;;;1543.72;999.90;;;32.30;99.90;;;;;;4998796;28;20096;-65
2023/12/14 05:01:02;;;;;;;1531.07;999.90;;;32.30;99.90;;;;;;5001668;28;20042;-65
2023/12/14 05:03:29;;;;;;;1531.70;999.90;;;32.40;99.90;;;;;;5006025;28;20056;-64
2023/12/14 05:05:56;;;;;;;1518.90;999.90;;;32.40;99.90;;;;;;5008510;28;20022;-64
2023/12/14 05:08:26;;;;;;;1531.22;999.90;;;32.50;99.90;;;;;;5007694;28;20493;-65
2023/12/14 05:10:52;;;;;;;1505.72;999.90;;;32.50;99.90;;;;;;5001822;28;20056;-64
2023/12/14 05:13:19;;;;;;;1531.85;999.90;;;32.60;99.90;;;;;;5006997;28;20065;-65
2023/12/14 05:15:45;;;;;;;1519.47;999.90;;;32.80;99.90;;;;;;5006672;28;20037;-65
2023/12/14 05:18:12;;;;;;;1515.55;999.90;;;32.80;99.90;;;;;;5004926;28;20018;-64
2023/12/14 05:20:38;;;;;;;1544.63;999.90;;;32.90;99.90;;;;;;5003544;28;20084;-66
2023/12/14 05:23:05;;;;;;;1540.07;999.90;;;33.00;99.90;;;;;;4999762;28;20030;-65
2023/12/14 05:25:31;;;;;;;1538.93;999.90;;;33.20;99.90;;;;;;5003279;28;20079;-65
2023/12/14 05:27:58;;;;;;;1539.20;999.90;;;33.20;99.90;;;;;;4998387;28;20031;-63
2023/12/14 05:30:25;;;;;;;1565.03;999.90;;;33.30;99.90;;;;;;5004014;28;20021;-65
2023/12/14 05:32:51;;;;;;;1547.80;999.90;;;33.40;99.90;;;;;;5005466;28;20065;-65
2023/12/14 05:35:17;;;;;;;1545.97;999.90;;;33.50;99.90;;;;;;5004100;28;20056;-65
2023/12/14 05:37:44;;;;;;;1542.88;999.90;;;33.50;99.90;;;;;;4999547;28;20022;-65
2023/12/14 05:40:11;;;;;;;1531.68;999.90;;;33.60;99.90;;;;;;4994401;28;20026;-66
2023/12/14 05:42:37;;;;;;;1525.25;999.90;;;33.70;99.90;;;;;;4994411;28;20025;-65
2023/12/14 05:45:05;;;;;;;1546.32;999.90;;;33.80;99.90;;;;;;4994087;28;20496;-65
2023/12/14 05:47:34;;;;;;;1540.53;999.90;;;33.90;99.90;;;;;;4994252;28;20053;-66
2023/12/14 05:50:01;;;;;;;1536.78;999.90;;;34.00;99.90;;;;;;4993776;28;20041;-67
2023/12/14 05:52:28;;;;;;;1537.53;999.90;;;34.00;99.90;;;;;;4993859;28;20034;-68
2023/12/14 05:54:55;;;;;;;1546.72;999.90;;;33.90;99.90;;;;;;4993843;28;20110;-67
2023/12/14 05:57:24;;;;;;;1548.05;999.90;;;33.90;99.90;;;;;;4998364;28;20045;-65
2023/12/14 05:59:52;;;;;;;1551.05;999.90;;;34.10;99.90;;;;;;5017172;28;20473;-65
2023/12/14 06:02:19;;;;;;;1530.70;999.90;;;34.20;99.90;;;;;;5008221;28;20388;-65
2023/12/14 06:04:46;;;;;;;1544.82;999.90;;;34.10;99.90;;;;;;5005720;28;20026;-65
2023/12/14 06:07:15;;;;;;;1549.00;999.90;;;34.00;99.90;;;;;;5007396;28;20452;-64
2023/12/14 06:09:42;;;;;;;1553.60;999.90;;;34.00;99.90;;;;;;5007801;28;20030;-64
2023/12/14 06:12:08;;;;;;;1539.53;999.90;;;34.00;99.90;;;;;;5002710;28;20354;-64
2023/12/14 06:14:35;;;;;;;1540.53;999.90;;;34.00;99.90;;;;;;5007096;28;20050;-62
2023/12/14 06:17:02;;;;;;;1547.40;999.90;;;34.00;99.90;;;;;;5008404;28;20022;-62
2023/12/14 06:19:28;;;;;;;1552.57;999.90;;;34.00;99.90;;;;;;5006416;28;20380;-62
2023/12/14 06:21:55;;;;;;;1536.80;999.90;;;34.00;99.90;;;;;;5003703;28;20050;-64
2023/12/14 06:24:22;;;;;;;1538.65;999.90;;;34.20;99.90;;;;;;4997122;28;20389;-64
2023/12/14 06:26:48;;;;;;;1542.38;999.90;;;34.20;99.90;;;;;;5002714;28;20522;-64
2023/12/14 06:29:15;;;;;;;1550.20;999.90;;;34.30;99.90;;;;;;5005568;28;20037;-62
2023/12/14 06:31:42;;;;;;;1541.22;999.90;;;34.20;99.90;;;;;;5006532;28;20026;-65
2023/12/14 06:34:08;;;;;;;1552.05;999.90;;;34.20;99.90;;;;;;5007385;28;20557;-64
2023/12/14 06:36:35;;;;;;;1548.00;999.90;;;34.30;99.90;;;;;;5005256;28;20025;-66
2023/12/14 06:39:04;;;;;;;1544.07;999.90;;;34.50;99.90;;;;;;5006417;28;20481;-64
2023/12/14 06:41:31;;;;;;;1549.70;999.90;;;34.60;99.90;;;;;;5015675;28;20033;-64
2023/12/14 06:43:57;;;;;;;1547.35;999.90;;;34.60;99.90;;;;;;5005704;28;20098;-63
2023/12/14 06:46:24;;;;;;;1553.72;999.90;;;34.70;99.90;;;;;;4996543;28;20085;-65
2023/12/14 06:48:50;;;;;;;1559.03;999.90;;;34.70;99.90;;;;;;4996255;28;20463;-64
2023/12/14 06:51:17;;;;;;;1537.35;999.90;;;34.80;99.90;;;;;;4996535;28;20085;-65
2023/12/14 06:53:45;;;;;;;1556.15;999.90;;;34.80;99.90;;;;;;4996200;28;20089;-63
2023/12/14 06:56:12;;;;;;;1548.10;999.90;;;34.90;99.90;;;;;;4996310;28;20481;-65
2023/12/14 06:58:42;;;;;;;1530.63;999.90;;;34.90;99.90;;;;;;4996289;28;20085;-63
2023/12/14 07:01:18;;;;;;;1544.72;999.90;;;34.80;99.90;;;;;;4996187;28;20041;-63
2023/12/14 07:03:45;;;;;;;1531.95;999.90;;;34.90;99.90;;;;;;4996214;28;20030;-63
2023/12/14 07:06:14;;;;;;;1539.85;999.90;;;35.00;99.90;;;;;;4996026;28;20032;-65
2023/12/14 07:08:41;;;;;;;1549.22;999.90;;;34.90;99.90;;;;;;5005911;28;20030;-64
2023/12/14 07:11:09;;;;;;;1547.93;999.90;;;35.00;99.90;;;;;;5004465;28;20436;-65
2023/12/14 07:13:37;;;;;;;1538.78;999.90;;;35.10;99.90;;;;;;5014026;28;20030;-66
2023/12/14 07:16:09;;;;;;;1543.43;999.90;;;35.20;99.90;;;;;;5015421;28;20030;-70
2023/12/14 07:18:36;;;;;;;1544.00;999.90;;;35.20;99.90;;;;;;5015817;28;20048;-68
2023/12/14 07:21:03;;;;;;;1535.10;999.90;;;35.20;99.90;;;;;;5015838;28;20043;-65
2023/12/14 07:23:30;;;;;;;1547.85;999.90;;;35.30;99.90;;;;;;5015714;28;20022;-65
2023/12/14 07:25:57;;;;;;;1550.53;999.90;;;35.30;99.90;;;;;;5015607;28;20030;-66
2023/12/14 07:28:23;;;;;;;1558.28;999.90;;;35.20;99.90;;;;;;5015575;28;20026;-64
2023/12/14 07:30:50;;;;;;;1553.32;999.90;;;35.10;99.90;;;;;;5015527;28;20079;-63
2023/12/14 07:33:16;;;;;;;1566.90;999.90;;;35.20;99.90;;;;;;5015557;28;20125;-64
2023/12/14 07:35:43;;;;;;;1552.28;999.90;;;35.20;99.90;;;;;;5015221;28;20029;-63
2023/12/14 07:38:13;;;;;;;1555.50;999.90;;;35.30;99.90;;;;;;5009250;28;20026;-63
2023/12/14 07:40:40;;;;;;;1558.15;999.90;;;35.20;99.90;;;;;;5005878;28;20441;-64
2023/12/14 07:43:07;;;;;;;1557.65;999.90;;;35.30;99.90;;;;;;5004252;28;20030;-64
2023/12/14 07:45:34;;;;;;;1559.25;999.90;;;35.30;99.90;;;;;;5005457;28;20033;-66
2023/12/14 07:48:00;;;;;;;1554.47;999.90;;;35.30;99.90;;;;;;5005597;28;20027;-65
2023/12/14 07:50:27;;;;;;;1541.18;999.90;;;35.30;99.90;;;;;;5003634;28;20023;-63
2023/12/14 07:52:53;;;;;;;1544.43;999.90;;;35.30;99.90;;;;;;5005300;28;20045;-63
2023/12/14 07:55:20;;;;;;;1552.22;999.90;;;35.30;99.90;;;;;;5000309;28;20057;-63
2023/12/14 07:57:47;;;;;;;1549.97;999.90;;;35.30;99.90;;;;;;4995029;28;20493;-63
2023/12/14 08:00:15;;;;;;;1553.47;999.90;;;35.30;99.90;;;;;;5006852;28;20033;-64
2023/12/14 08:02:41;;;;;;;1557.57;999.90;;;35.30;99.90;;;;;;5013569;28;20010;-64
2023/12/14 08:05:09;;;;;;;1550.70;999.90;;;35.30;99.90;;;;;;4999453;28;20463;-63
2023/12/14 08:07:35;;;;;;;1546.32;999.90;;;35.30;99.90;;;;;;5003894;28;20473;-64
2023/12/14 08:10:03;;;;;;;1556.10;999.90;;;35.20;99.90;;;;;;5001360;28;20469;-64
2023/12/14 08:12:29;;;;;;;1551.22;999.90;;;35.20;99.90;;;;;;4999275;28;20026;-63
2023/12/14 08:14:56;;;;;;;1534.50;999.90;;;35.20;99.90;;;;;;5004257;28;20065;-63
2023/12/14 08:17:22;;;;;;;1543.78;999.90;;;35.20;99.90;;;;;;5003227;28;20018;-64
2023/12/14 08:19:49;;;;;;;1547.28;999.90;;;35.20;99.90;;;;;;5002643;28;20443;-68
2023/12/14 08:22:15;;;;;;;1553.40;999.90;;;35.30;99.90;;;;;;5003440;28;20026;-63
2023/12/14 08:24:42;;;;;;;1550.97;999.90;;;35.30;99.90;;;;;;5004951;28;20358;-64
2023/12/14 08:27:09;;;;;;;1537.55;999.90;;;35.20;99.90;;;;;;5002779;28;20393;-62
2023/12/14 08:29:35;;;;;;;1557.55;999.90;;;35.20;99.90;;;;;;5003821;28;20148;-65
2023/12/14 08:32:03;;;;;;;1546.40;999.90;;;35.30;99.90;;;;;;5004717;28;20027;-64
2023/12/14 08:34:29;;;;;;;1550.35;999.90;;;35.30;99.90;;;;;;5002895;28;20030;-62
2023/12/14 08:36:56;;;;;;;1537.07;999.90;;;35.30;99.90;;;;;;5008590;28;20025;-64
2023/12/14 08:39:22;;;;;;;1549.07;999.90;;;35.30;99.90;;;;;;5014052;28;20022;-64
2023/12/14 08:41:49;;;;;;;1562.75;999.90;;;35.20;99.90;;;;;;5013851;28;20022;-64
2023/12/14 08:44:16;;;;;;;1553.68;999.90;;;35.20;99.90;;;;;;5013757;28;20499;-63
2023/12/14 08:46:45;;;;;;;1564.63;999.90;;;35.20;99.90;;;;;;5013798;28;20041;-62
2023/12/14 08:49:12;;;;;;;1559.93;999.90;;;35.20;99.90;;;;;;5013824;28;20029;-63
2023/12/14 08:51:39;;;;;;;1559.22;999.90;;;35.30;99.90;;;;;;5013708;28;20030;-62
2023/12/14 08:54:07;;;;;;;1529.38;999.90;;;35.30;99.90;;;;;;5014073;28;20038;-64
2023/12/14 08:56:34;;;;;;;1544.80;999.90;;;35.20;99.90;;;;;;5013575;28;20095;-64
2023/12/14 08:59:03;;;;;;;1549.40;999.90;;;35.20;99.90;;;;;;5007672;28;20050;-62
2023/12/14 09:01:30;;;;;;;1534.25;999.90;;;35.30;99.90;;;;;;5002800;28;20022;-62
2023/12/14 09:03:56;;;;;;;1549.32;999.90;;;35.40;99.90;;;;;;5003656;28;20408;-62
2023/12/14 09:06:23;;;;;;;1547.95;999.90;;;35.40;99.90;;;;;;5004075;28;20026;-62
2023/12/14 09:08:49;;;;;;;1545.78;999.90;;;35.50;99.90;;;;;;5002293;28;20385;-62
2023/12/14 09:11:16;;;;;;;1542.25;999.90;;;35.40;99.90;;;;;;5003895;28;20026;-61
2023/12/14 09:13:43;;;;;;;1544.75;999.90;;;35.40;99.90;;;;;;5003687;28;20104;-61
2023/12/14 09:16:10;;;;;;;1540.55;999.90;;;35.40;99.90;;;;;;5002110;28;20026;-61
2023/12/14 09:18:36;;;;;;;1545.00;999.90;;;35.40;99.90;;;;;;5002767;28;20109;-61
2023/12/14 09:21:04;;;;;;;1553.55;999.90;;;35.40;99.90;;;;;;5003698;28;20026;-62
2023/12/14 09:23:31;;;;;;;1533.90;999.90;;;35.40;99.90;;;;;;4998537;28;20109;-67
2023/12/14 09:25:58;;;;;;;1531.00;999.90;;;35.40;99.90;;;;;;5001891;28;20041;-61
2023/12/14 09:28:26;;;;;;;1557.47;999.90;;;35.40;99.90;;;;;;5003362;28;20093;-62
2023/12/14 09:30:53;;;;;;;1542.88;999.90;;;35.50;99.90;;;;;;5003878;28;20030;-62
2023/12/14 09:33:19;;;;;;;1558.72;999.90;;;35.50;99.90;;;;;;5005235;28;20022;-61
2023/12/14 09:35:46;;;;;;;1541.20;999.90;;;35.50;99.90;;;;;;5007079;28;20071;-62
2023/12/14 09:38:15;;;;;;;1552.10;999.90;;;35.50;99.90;;;;;;5008148;28;20029;-62
2023/12/14 09:40:44;;;;;;;1564.97;999.90;;;35.50;99.90;;;;;;5006207;28;20025;-62
2023/12/14 09:43:13;;;;;;;1548.82;999.90;;;35.40;99.90;;;;;;5006306;28;20026;-61
2023/12/14 09:45:44;;;;;;;1556.82;999.90;;;35.50;99.90;;;;;;5006910;28;20037;-63
2023/12/14 09:48:12;;;;;;;1555.35;999.90;;;35.40;99.90;;;;;;5007639;28;20053;-64
2023/12/14 09:50:44;;;;;;;1552.63;999.90;;;35.10;99.90;;;;;;5007702;28;20040;-62
2023/12/14 09:53:10;;;;;;;1545.60;999.90;;;35.00;99.90;;;;;;5007198;28;20023;-63
2023/12/14 09:55:37;;;;;;;1566.97;999.90;;;34.90;99.90;;;;;;5004871;28;20034;-62
2023/12/14 09:58:03;;;;;;;1553.35;999.90;;;34.90;99.90;;;;;;5006705;28;20042;-62
2023/12/14 10:00:40;;;;;;;1536.88;999.90;;;34.90;99.90;;;;;;5006937;28;20022;-65
2023/12/14 10:03:28;;;;;;;1560.63;999.90;;;34.90;99.90;;;;;;5010946;28;20480;-63
2023/12/14 10:05:57;;;;;;;1580.05;999.90;;;34.90;99.90;;;;;;5008210;28;20038;-62
2023/12/14 10:08:24;;;;;;;1564.80;999.90;;;34.90;99.90;;;;;;5008766;28;20104;-63
2023/12/14 10:10:53;;;;;;;1613.68;999.90;;;34.90;99.90;;;;;;5007186;28;20034;-64
2023/12/14 10:13:23;;;;;;;1642.68;999.90;;;34.90;99.90;;;;;;5007920;28;20069;-64
2023/12/14 10:15:50;;;;;;;1576.00;999.90;;;34.80;99.90;;;;;;5003372;28;20026;-63
2023/12/14 10:18:24;;;;;;;1555.45;999.90;;;34.90;99.90;;;;;;5007217;28;20022;-62
2023/12/14 10:20:51;;;;;;;1570.18;999.90;;;34.90;99.90;;;;;;5001721;28;20034;-62
2023/12/14 10:23:18;;;;;;;1603.78;999.90;;;34.80;99.90;;;;;;5002633;28;20056;-63
2023/12/14 10:25:45;;;;;;;1593.10;999.90;;;34.80;99.90;;;;;;5002165;28;20030;-62
2023/12/14 10:28:13;;;;;;;1572.97;999.90;;;34.70;99.90;;;;;;5001555;28;20161;-63
2023/12/14 10:30:41;;;;;;;1568.45;999.90;;;34.70;99.90;;;;;;5002006;28;20040;-62
2023/12/14 10:33:08;;;;;;;1569.50;999.90;;;34.70;99.90;;;;;;5001761;28;20096;-63
2023/12/14 10:35:34;;;;;;;1580.07;999.90;;;34.70;99.90;;;;;;5004018;28;21048;-65
2023/12/14 10:38:05;;;;;;;1580.43;999.90;;;34.60;99.90;;;;;;5003149;28;20116;-64
2023/12/14 10:40:34;;;;;;;1576.10;999.90;;;34.60;99.90;;;;;;5001070;28;20026;-65
2023/12/14 10:43:03;;;;;;;1587.38;999.90;;;34.50;99.90;;;;;;5000517;28;20426;-66
2023/12/14 10:45:32;;;;;;;1579.88;999.90;;;34.50;99.90;;;;;;5004737;28;20037;-64
2023/12/14 10:48:02;;;;;;;1622.63;999.90;;;34.40;99.90;;;;;;5005961;28;20438;-65
2023/12/14 10:50:30;;;;;;;1608.80;999.90;;;34.40;99.90;;;;;;5006208;28;20396;-64
2023/12/14 10:52:59;;;;;;;1570.20;999.90;;;34.30;99.90;;;;;;5004960;28;20058;-65
2023/12/14 10:55:38;;;;;;;1585.93;999.90;;;34.20;99.90;;;;;;5006944;28;20473;-64
2023/12/14 10:58:05;;;;;;;1569.93;999.90;;;34.20;99.90;;;;;;5009216;28;20050;-64
2023/12/14 11:00:32;;;;;;;1571.18;999.90;;;34.10;99.90;;;;;;5008034;28;20469;-63
2023/12/14 11:03:00;;;;;;;1554.32;999.90;;;34.10;99.90;;;;;;5006688;28;20034;-63
2023/12/14 11:05:30;;;;;;;1582.75;999.90;;;34.00;99.90;;;;;;5002753;28;20488;-64
2023/12/14 11:08:03;;;;;;;1587.22;999.90;;;34.00;99.90;;;;;;5002553;28;20624;-64
2023/12/14 11:10:38;;;;;;;1560.05;999.90;;;34.00;99.90;;;;;;5006368;28;20025;-65
2023/12/14 11:13:10;;;;;;;1581.43;999.90;;;34.00;99.90;;;;;;5003845;28;20370;-64
2023/12/14 11:15:38;;;;;;;1614.22;999.90;;;33.90;99.90;;;;;;5006307;28;20027;-64
2023/12/14 11:18:10;;;;;;;1565.18;999.90;;;33.80;99.90;;;;;;5003321;28;20105;-66
2023/12/14 11:20:59;;;;;;;1582.00;999.90;;;33.80;99.90;;;;;;5004337;28;20491;-64
2023/12/14 11:23:25;;;;;;;1576.40;999.90;;;33.70;99.90;;;;;;4994497;28;20109;-64
2023/12/14 11:25:58;;;;;;;1596.55;999.90;;;33.70;99.90;;;;;;5004450;28;20107;-65
2023/12/14 11:28:25;;;;;;;1614.70;999.90;;;33.70;99.90;;;;;;5002637;28;20034;-64
2023/12/14 11:30:52;;;;;;;1612.60;999.90;;;33.70;99.90;;;;;;5005852;28;20619;-65
2023/12/14 11:33:18;;;;;;;1617.82;999.90;;;33.60;99.90;;;;;;5012410;28;20113;-65
2023/12/14 11:35:45;;;;;;;1622.97;999.90;;;33.60;99.90;;;;;;5000907;28;20030;-65
2023/12/14 11:38:13;;;;;;;1587.28;999.90;;;33.60;99.90;;;;;;5004166;28;20024;-65
2023/12/14 11:40:42;;;;;;;1608.10;999.90;;;33.70;99.90;;;;;;5004713;28;20018;-66
2023/12/14 11:43:09;;;;;;;1615.10;999.90;;;33.60;99.90;;;;;;5004349;28;20512;-66
2023/12/14 11:45:36;;;;;;;1624.63;999.90;;;33.50;99.90;;;;;;5040805;23;20046;-62
2023/12/14 11:48:08;;;;;;;1627.65;999.90;;;33.50;99.90;;;;;;5034874;28;20093;-63
2023/12/14 11:50:35;;;;;;;1620.75;999.90;;;33.50;99.90;;;;;;5035448;28;20451;-63
2023/12/14 11:53:04;;;;;;;1628.32;999.90;;;33.40;99.90;;;;;;5034819;28;20499;-62
2023/12/14 11:55:39;;;;;;;1642.00;999.90;;;33.40;99.90;;;;;;5025494;28;20037;-63
2023/12/14 11:58:06;;;;;;;1622.72;999.90;;;33.40;99.90;;;;;;5011076;28;20018;-63